createdAt,value
2018-12-02T00:00:40.650Z,0.00
2018-12-02T00:01:40.665Z,0.00
2018-12-02T00:02:40.660Z,0.00
2018-12-02T00:03:40.641Z,0.00
2018-12-02T00:04:40.655Z,0.00
2018-12-02T00:05:40.851Z,0.00
2018-12-02T00:06:40.838Z,0.00
2018-12-02T00:07:40.650Z,0.00
2018-12-02T00:08:40.631Z,0.00
2018-12-02T00:09:40.637Z,0.00
2018-12-02T00:10:40.842Z,0.00
2018-12-02T00:11:40.826Z,0.00
2018-12-02T00:12:40.856Z,0.00
2018-12-02T00:13:40.621Z,0.00
2018-12-02T00:14:40.613Z,0.00
2018-12-02T00:15:40.620Z,0.00
2018-12-02T00:16:40.606Z,0.00
2018-12-02T00:17:40.617Z,0.00
2018-12-02T00:18:40.603Z,0.00
2018-12-02T00:19:40.604Z,0.00
2018-12-02T00:20:40.594Z,0.00
2018-12-02T00:21:40.593Z,0.00
2018-12-02T00:22:40.601Z,0.00
2018-12-02T00:23:40.596Z,0.00
2018-12-02T00:24:40.605Z,0.00
2018-12-02T00:25:40.589Z,0.00
2018-12-02T00:26:40.593Z,0.00
2018-12-02T00:27:40.577Z,0.00
2018-12-02T00:28:40.590Z,0.00
2018-12-02T00:29:40.572Z,0.00
2018-12-02T00:30:40.575Z,0.00
2018-12-02T00:31:40.573Z,0.00
2018-12-02T00:32:40.560Z,0.00
2018-12-02T00:33:40.569Z,0.00
2018-12-02T00:34:40.759Z,0.00
2018-12-02T00:35:40.566Z,0.00
2018-12-02T00:36:40.548Z,0.00
2018-12-02T00:37:40.611Z,0.00
2018-12-02T00:38:40.755Z,0.00
2018-12-02T00:39:40.547Z,0.00
2018-12-02T00:40:40.558Z,0.00
2018-12-02T00:41:40.697Z,0.00
2018-12-02T00:42:40.735Z,0.00
2018-12-02T00:43:40.531Z,0.00
2018-12-02T00:44:40.540Z,0.00
2018-12-02T00:45:40.537Z,0.00
2018-12-02T00:46:40.521Z,0.00
2018-12-02T00:47:40.548Z,0.00
2018-12-02T00:48:40.730Z,0.00
2018-12-02T00:49:40.508Z,0.00
2018-12-02T00:50:40.513Z,0.00
2018-12-02T00:51:40.707Z,0.00
2018-12-02T00:52:40.505Z,0.00
2018-12-02T00:53:40.509Z,0.00
2018-12-02T00:54:40.709Z,0.00
2018-12-02T00:55:40.494Z,0.00
2018-12-02T00:56:40.492Z,0.00
2018-12-02T00:57:40.487Z,0.00
2018-12-02T00:58:40.686Z,0.00
2018-12-02T00:59:40.483Z,0.00
2018-12-02T01:00:40.484Z,0.00
2018-12-02T01:01:40.688Z,0.00
2018-12-02T01:02:40.483Z,0.00
2018-12-02T01:03:40.475Z,0.00
2018-12-02T01:04:40.468Z,0.00
2018-12-02T01:05:40.669Z,0.00
2018-12-02T01:06:40.474Z,0.00
2018-12-02T01:07:40.459Z,0.00
2018-12-02T01:08:40.471Z,0.00
2018-12-02T01:09:40.658Z,0.00
2018-12-02T01:10:40.455Z,0.00
2018-12-02T01:11:40.449Z,0.00
2018-12-02T01:12:40.446Z,0.00
2018-12-02T01:13:40.443Z,0.00
2018-12-02T01:14:40.457Z,0.00
2018-12-02T01:15:40.452Z,0.00
2018-12-02T01:16:40.455Z,0.00
2018-12-02T01:17:40.443Z,0.00
2018-12-02T01:18:40.643Z,0.00
2018-12-02T01:19:40.449Z,0.00
2018-12-02T01:20:40.449Z,0.00
2018-12-02T01:21:40.421Z,0.00
2018-12-02T01:22:40.418Z,0.00
2018-12-02T01:23:40.417Z,0.00
2018-12-02T01:24:40.423Z,0.00
2018-12-02T01:25:40.409Z,0.00
2018-12-02T01:26:40.409Z,0.00
2018-12-02T01:27:40.407Z,0.00
2018-12-02T01:28:40.604Z,0.00
2018-12-02T01:29:40.418Z,0.00
2018-12-02T01:30:40.410Z,0.00
2018-12-02T01:31:40.394Z,0.00
2018-12-02T01:32:40.407Z,0.00
2018-12-02T01:33:40.392Z,0.00
2018-12-02T01:34:40.389Z,0.00
2018-12-02T01:35:40.384Z,0.00
2018-12-02T01:36:40.398Z,0.00
2018-12-02T01:37:40.376Z,0.00
2018-12-02T01:38:40.386Z,0.00
2018-12-02T01:39:40.580Z,0.00
2018-12-02T01:40:40.370Z,0.00
2018-12-02T01:41:40.366Z,0.00
2018-12-02T01:42:40.388Z,0.00
2018-12-02T01:43:40.360Z,0.00
2018-12-02T01:44:40.358Z,0.00
2018-12-02T01:45:40.368Z,0.00
2018-12-02T01:46:40.356Z,0.00
2018-12-02T01:47:40.352Z,0.00
2018-12-02T01:48:40.560Z,0.00
2018-12-02T01:49:40.342Z,0.00
2018-12-02T01:50:40.341Z,0.00
2018-12-02T01:51:40.352Z,0.00
2018-12-02T01:52:40.336Z,0.00
2018-12-02T01:53:40.344Z,0.00
2018-12-02T01:54:40.332Z,0.00
2018-12-02T01:55:40.351Z,0.00
2018-12-02T01:56:40.534Z,0.00
2018-12-02T01:57:40.323Z,0.00
2018-12-02T01:58:40.337Z,0.00
2018-12-02T01:59:40.346Z,0.00
2018-12-02T02:00:40.315Z,0.00
2018-12-02T02:01:40.516Z,0.00
2018-12-02T02:02:40.326Z,0.00
2018-12-02T02:03:40.521Z,0.00
2018-12-02T02:04:40.321Z,0.00
2018-12-02T02:05:40.513Z,0.00
2018-12-02T02:06:40.314Z,0.00
2018-12-02T02:07:40.500Z,0.00
2018-12-02T02:08:40.304Z,0.00
2018-12-02T02:09:40.507Z,0.00
2018-12-02T02:10:40.292Z,0.00
2018-12-02T02:11:40.284Z,0.00
2018-12-02T02:12:40.294Z,0.00
2018-12-02T02:13:40.295Z,0.00
2018-12-02T02:14:40.286Z,0.00
2018-12-02T02:15:40.289Z,0.00
2018-12-02T02:16:40.283Z,0.00
2018-12-02T02:17:40.272Z,0.00
2018-12-02T02:18:40.275Z,0.00
2018-12-02T02:19:40.467Z,0.00
2018-12-02T02:20:40.282Z,0.00
2018-12-02T02:21:40.272Z,0.00
2018-12-02T02:22:40.488Z,0.00
2018-12-02T02:23:40.272Z,0.00
2018-12-02T02:24:40.264Z,0.00
2018-12-02T02:25:40.260Z,0.00
2018-12-02T02:26:40.258Z,0.00
2018-12-02T02:27:40.253Z,0.00
2018-12-02T02:28:40.254Z,0.00
2018-12-02T02:29:40.445Z,0.00
2018-12-02T02:30:40.234Z,0.00
2018-12-02T02:31:40.241Z,0.00
2018-12-02T02:32:40.229Z,0.00
2018-12-02T02:33:40.224Z,0.00
2018-12-02T02:34:40.222Z,0.00
2018-12-02T02:35:40.218Z,0.00
2018-12-02T02:36:40.227Z,0.00
2018-12-02T02:37:40.222Z,0.00
2018-12-02T02:38:40.226Z,0.00
2018-12-02T02:39:40.220Z,0.00
2018-12-02T02:40:40.214Z,0.00
2018-12-02T02:41:40.201Z,0.00
2018-12-02T02:42:40.198Z,0.00
2018-12-02T02:43:40.199Z,0.00
2018-12-02T02:44:40.194Z,0.00
2018-12-02T02:45:40.191Z,0.00
2018-12-02T02:46:40.398Z,0.00
2018-12-02T02:47:40.198Z,0.00
2018-12-02T02:48:40.398Z,0.00
2018-12-02T02:49:40.184Z,0.00
2018-12-02T02:50:40.176Z,0.00
2018-12-02T02:51:40.377Z,0.00
2018-12-02T02:52:40.182Z,0.00
2018-12-02T02:53:40.170Z,0.00
2018-12-02T02:54:40.164Z,0.00
2018-12-02T02:55:40.175Z,0.00
2018-12-02T02:56:40.169Z,0.00
2018-12-02T02:57:40.159Z,0.00
2018-12-02T02:58:40.357Z,0.00
2018-12-02T02:59:40.152Z,0.00
2018-12-02T03:00:40.161Z,0.00
2018-12-02T03:01:40.194Z,0.00
2018-12-02T03:02:40.185Z,0.00
2018-12-02T03:03:40.171Z,0.00
2018-12-02T03:04:40.225Z,0.00
2018-12-02T03:05:40.164Z,0.00
2018-12-02T03:06:40.141Z,0.00
2018-12-02T03:07:40.126Z,0.00
2018-12-02T03:08:40.128Z,0.00
2018-12-02T03:09:40.118Z,0.00
2018-12-02T03:10:40.133Z,0.00
2018-12-02T03:11:40.145Z,0.00
2018-12-02T03:12:40.112Z,0.00
2018-12-02T03:13:40.107Z,0.00
2018-12-02T03:14:40.108Z,0.00
2018-12-02T03:15:40.103Z,0.00
2018-12-02T03:16:40.100Z,0.00
2018-12-02T03:17:40.127Z,0.00
2018-12-02T03:18:40.105Z,0.00
2018-12-02T03:19:40.092Z,0.00
2018-12-02T03:20:40.305Z,0.00
2018-12-02T03:21:40.085Z,0.00
2018-12-02T03:22:40.095Z,0.00
2018-12-02T03:23:40.292Z,0.00
2018-12-02T03:24:40.092Z,0.00
2018-12-02T03:25:40.090Z,0.00
2018-12-02T03:26:40.073Z,0.00
2018-12-02T03:27:40.068Z,0.00
2018-12-02T03:28:40.065Z,0.00
2018-12-02T03:29:40.067Z,0.00
2018-12-02T03:30:40.065Z,0.00
2018-12-02T03:31:40.258Z,0.00
2018-12-02T03:32:40.065Z,0.00
2018-12-02T03:33:40.056Z,0.00
2018-12-02T03:34:40.046Z,0.00
2018-12-02T03:35:40.246Z,0.00
2018-12-02T03:36:40.247Z,0.00
2018-12-02T03:37:40.045Z,0.00
2018-12-02T03:38:40.237Z,0.00
2018-12-02T03:39:40.242Z,0.00
2018-12-02T03:40:40.044Z,0.00
2018-12-02T03:41:40.030Z,0.00
2018-12-02T03:42:40.023Z,0.00
2018-12-02T03:43:40.019Z,0.00
2018-12-02T03:44:40.234Z,0.00
2018-12-02T03:45:40.013Z,0.00
2018-12-02T03:46:40.012Z,0.00
2018-12-02T03:47:40.213Z,0.00
2018-12-02T03:48:40.005Z,0.00
2018-12-02T03:49:40.204Z,0.00
2018-12-02T03:50:40.199Z,0.00
2018-12-02T03:51:39.994Z,0.00
2018-12-02T03:52:39.992Z,0.00
2018-12-02T03:53:40.004Z,0.00
2018-12-02T03:54:39.987Z,0.00
2018-12-02T03:55:39.986Z,0.00
2018-12-02T03:56:39.993Z,0.00
2018-12-02T03:57:40.180Z,0.00
2018-12-02T03:58:39.976Z,0.00
2018-12-02T03:59:39.996Z,0.00
2018-12-02T04:00:39.970Z,0.00
2018-12-02T04:01:39.977Z,0.00
2018-12-02T04:02:39.981Z,0.00
2018-12-02T04:03:40.163Z,0.00
2018-12-02T04:04:39.978Z,0.00
2018-12-02T04:05:39.965Z,0.00
2018-12-02T04:06:39.964Z,0.00
2018-12-02T04:07:39.977Z,0.00
2018-12-02T04:08:39.945Z,0.00
2018-12-02T04:09:39.971Z,0.00
2018-12-02T04:10:39.959Z,0.00
2018-12-02T04:11:40.150Z,0.00
2018-12-02T04:12:39.938Z,0.00
2018-12-02T04:13:39.931Z,0.00
2018-12-02T04:14:39.956Z,0.00
2018-12-02T04:15:39.940Z,0.00
2018-12-02T04:16:40.138Z,0.00
2018-12-02T04:17:39.937Z,0.00
2018-12-02T04:18:39.937Z,0.00
2018-12-02T04:19:39.915Z,0.00
2018-12-02T04:20:39.927Z,0.00
2018-12-02T04:21:39.910Z,0.00
2018-12-02T04:22:40.133Z,0.00
2018-12-02T04:23:39.913Z,0.00
2018-12-02T04:24:39.913Z,0.00
2018-12-02T04:25:39.899Z,0.00
2018-12-02T04:26:39.905Z,0.00
2018-12-02T04:27:39.892Z,0.00
2018-12-02T04:28:40.106Z,0.00
2018-12-02T04:29:39.911Z,0.00
2018-12-02T04:30:39.882Z,0.00
2018-12-02T04:31:39.895Z,0.00
2018-12-02T04:32:39.885Z,0.00
2018-12-02T04:33:39.874Z,0.00
2018-12-02T04:34:39.883Z,0.00
2018-12-02T04:35:39.879Z,0.00
2018-12-02T04:36:39.876Z,0.00
2018-12-02T04:37:39.865Z,0.00
2018-12-02T04:38:39.880Z,0.00
2018-12-02T04:39:39.861Z,0.00
2018-12-02T04:40:39.860Z,0.00
2018-12-02T04:41:39.867Z,0.00
2018-12-02T04:42:40.060Z,0.00
2018-12-02T04:43:39.858Z,0.00
2018-12-02T04:44:39.854Z,0.00
2018-12-02T04:45:39.853Z,0.00
2018-12-02T04:46:40.040Z,0.00
2018-12-02T04:47:39.839Z,0.00
2018-12-02T04:48:39.858Z,0.00
2018-12-02T04:49:39.839Z,0.00
2018-12-02T04:50:39.836Z,0.00
2018-12-02T04:51:39.836Z,0.00
2018-12-02T04:52:39.838Z,0.00
2018-12-02T04:53:40.040Z,0.00
2018-12-02T04:54:39.819Z,0.00
2018-12-02T04:55:40.020Z,0.00
2018-12-02T04:56:39.812Z,0.00
2018-12-02T04:57:39.822Z,0.00
2018-12-02T04:58:39.805Z,0.00
2018-12-02T04:59:39.829Z,0.00
2018-12-02T05:00:39.802Z,0.00
2018-12-02T05:01:39.809Z,0.00
2018-12-02T05:02:39.808Z,0.00
2018-12-02T05:03:39.792Z,0.00
2018-12-02T05:04:39.823Z,0.00
2018-12-02T05:05:39.784Z,0.00
2018-12-02T05:06:39.791Z,0.00
2018-12-02T05:07:39.779Z,0.00
2018-12-02T05:08:39.777Z,0.00
2018-12-02T05:09:39.781Z,0.00
2018-12-02T05:10:39.773Z,0.00
2018-12-02T05:11:39.780Z,0.00
2018-12-02T05:12:39.767Z,0.00
2018-12-02T05:13:39.771Z,0.00
2018-12-02T05:14:39.777Z,0.00
2018-12-02T05:15:39.769Z,0.00
2018-12-02T05:16:39.758Z,0.00
2018-12-02T05:17:39.755Z,0.00
2018-12-02T05:18:39.767Z,0.00
2018-12-02T05:19:39.746Z,0.00
2018-12-02T05:20:39.745Z,0.00
2018-12-02T05:21:39.740Z,0.00
2018-12-02T05:22:39.741Z,0.00
2018-12-02T05:23:39.738Z,0.00
2018-12-02T05:24:39.795Z,0.00
2018-12-02T05:25:39.729Z,0.00
2018-12-02T05:26:39.728Z,0.00
2018-12-02T05:27:39.737Z,0.00
2018-12-02T05:28:39.738Z,0.00
2018-12-02T05:29:39.732Z,0.00
2018-12-02T05:30:39.716Z,0.00
2018-12-02T05:31:39.725Z,0.00
2018-12-02T05:32:39.713Z,0.00
2018-12-02T05:33:39.709Z,0.00
2018-12-02T05:34:39.732Z,0.00
2018-12-02T05:35:39.705Z,0.00
2018-12-02T05:36:39.702Z,0.00
2018-12-02T05:37:39.711Z,0.00
2018-12-02T05:38:39.697Z,0.00
2018-12-02T05:39:39.693Z,0.00
2018-12-02T05:40:39.688Z,0.00
2018-12-02T05:41:39.697Z,0.00
2018-12-02T05:42:39.699Z,0.00
2018-12-02T05:43:39.694Z,0.00
2018-12-02T05:44:39.685Z,0.00
2018-12-02T05:45:39.678Z,0.00
2018-12-02T05:46:39.681Z,0.00
2018-12-02T05:47:39.685Z,0.00
2018-12-02T05:48:39.694Z,0.00
2018-12-02T05:49:39.667Z,0.00
2018-12-02T05:50:39.662Z,0.00
2018-12-02T05:51:39.660Z,0.00
2018-12-02T05:52:39.658Z,0.00
2018-12-02T05:53:39.657Z,0.00
2018-12-02T05:54:39.653Z,0.00
2018-12-02T05:55:39.676Z,0.00
2018-12-02T05:56:39.654Z,0.00
2018-12-02T05:57:39.666Z,0.00
2018-12-02T05:58:39.639Z,0.00
2018-12-02T05:59:39.644Z,0.00
2018-12-02T06:00:39.634Z,0.00
2018-12-02T06:01:39.630Z,0.00
2018-12-02T06:02:39.640Z,0.00
2018-12-02T06:03:39.643Z,0.00
2018-12-02T06:04:39.644Z,0.00
2018-12-02T06:05:39.631Z,0.00
2018-12-02T06:06:39.638Z,0.00
2018-12-02T06:07:39.643Z,0.00
2018-12-02T06:08:39.614Z,0.00
2018-12-02T06:09:39.624Z,0.00
2018-12-02T06:10:39.608Z,0.00
2018-12-02T06:11:43.822Z,0.00
2018-12-02T06:12:39.619Z,0.00
2018-12-02T06:13:39.609Z,0.00
2018-12-02T06:14:39.611Z,0.00
2018-12-02T06:15:39.613Z,0.00
2018-12-02T06:16:39.592Z,0.00
2018-12-02T06:17:39.589Z,0.00
2018-12-02T06:18:39.587Z,0.00
2018-12-02T06:19:39.583Z,0.00
2018-12-02T06:20:39.582Z,0.00
2018-12-02T06:21:39.590Z,0.00
2018-12-02T06:22:39.576Z,0.00
2018-12-02T06:23:39.572Z,0.00
2018-12-02T06:24:39.587Z,0.00
2018-12-02T06:25:46.342Z,0.00
2018-12-02T06:26:39.578Z,0.00
2018-12-02T06:27:39.565Z,0.00
2018-12-02T06:28:39.557Z,0.00
2018-12-02T06:29:39.590Z,0.00
2018-12-02T06:30:39.577Z,0.00
2018-12-02T06:31:39.552Z,0.00
2018-12-02T06:32:39.548Z,0.00
2018-12-02T06:33:39.547Z,0.00
2018-12-02T06:34:39.543Z,0.00
2018-12-02T06:35:39.552Z,0.00
2018-12-02T06:36:39.551Z,0.00
2018-12-02T06:37:39.533Z,0.00
2018-12-02T06:38:39.737Z,0.00
2018-12-02T06:39:39.541Z,0.00
2018-12-02T06:40:39.528Z,0.00
2018-12-02T06:41:39.522Z,0.00
2018-12-02T06:42:39.536Z,0.00
2018-12-02T06:43:39.518Z,0.00
2018-12-02T06:44:39.515Z,0.00
2018-12-02T06:45:39.510Z,0.00
2018-12-02T06:46:39.509Z,0.00
2018-12-02T06:47:39.506Z,0.00
2018-12-02T06:48:39.515Z,0.00
2018-12-02T06:49:39.512Z,0.00
2018-12-02T06:50:39.508Z,0.00
2018-12-02T06:51:39.497Z,0.00
2018-12-02T06:52:39.505Z,0.00
2018-12-02T06:53:39.496Z,0.00
2018-12-02T06:54:39.516Z,0.00
2018-12-02T06:55:39.490Z,0.00
2018-12-02T06:56:39.502Z,0.00
2018-12-02T06:57:39.491Z,0.00
2018-12-02T06:58:39.475Z,0.00
2018-12-02T06:59:39.483Z,0.00
2018-12-02T07:00:39.469Z,0.00
2018-12-02T07:01:39.468Z,0.00
2018-12-02T07:02:39.475Z,0.00
2018-12-02T07:03:39.490Z,4.00
2018-12-02T07:04:39.474Z,4.00
2018-12-02T07:05:39.470Z,4.00
2018-12-02T07:06:39.453Z,4.00
2018-12-02T07:07:39.461Z,4.00
2018-12-02T07:08:39.452Z,4.00
2018-12-02T07:09:39.452Z,0.00
2018-12-02T07:10:39.442Z,4.00
2018-12-02T07:11:39.447Z,4.00
2018-12-02T07:12:39.452Z,4.00
2018-12-02T07:13:39.459Z,4.00
2018-12-02T07:14:39.431Z,4.00
2018-12-02T07:15:39.441Z,4.00
2018-12-02T07:16:39.483Z,4.00
2018-12-02T07:17:39.435Z,4.00
2018-12-02T07:18:39.431Z,4.00
2018-12-02T07:19:39.415Z,0.00
2018-12-02T07:20:39.425Z,4.00
2018-12-02T07:21:39.409Z,4.00
2018-12-02T07:22:39.414Z,4.00
2018-12-02T07:23:39.419Z,4.00
2018-12-02T07:24:39.425Z,4.00
2018-12-02T07:25:39.401Z,4.00
2018-12-02T07:26:39.420Z,4.00
2018-12-02T07:27:39.404Z,4.00
2018-12-02T07:28:39.403Z,4.00
2018-12-02T07:29:39.395Z,8.00
2018-12-02T07:30:39.386Z,8.00
2018-12-02T07:31:39.381Z,8.00
2018-12-02T07:32:39.407Z,8.00
2018-12-02T07:33:39.377Z,12.00
2018-12-02T07:34:39.374Z,12.00
2018-12-02T07:35:39.384Z,12.00
2018-12-02T07:36:39.366Z,12.00
2018-12-02T07:37:39.375Z,12.00
2018-12-02T07:38:39.373Z,16.00
2018-12-02T07:39:39.360Z,16.00
2018-12-02T07:40:39.356Z,20.00
2018-12-02T07:41:39.356Z,16.00
2018-12-02T07:42:39.349Z,12.00
2018-12-02T07:43:39.347Z,12.00
2018-12-02T07:44:39.343Z,12.00
2018-12-02T07:45:39.340Z,16.00
2018-12-02T07:46:39.337Z,16.00
2018-12-02T07:47:39.339Z,12.00
2018-12-02T07:48:39.343Z,12.00
2018-12-02T07:49:39.329Z,16.00
2018-12-02T07:50:40.151Z,16.00
2018-12-02T07:51:39.333Z,16.00
2018-12-02T07:52:39.326Z,16.00
2018-12-02T07:53:39.318Z,16.00
2018-12-02T07:54:39.316Z,16.00
2018-12-02T07:55:39.312Z,20.00
2018-12-02T07:56:39.325Z,24.00
2018-12-02T07:57:39.322Z,24.00
2018-12-02T07:58:39.306Z,28.00
2018-12-02T07:59:39.324Z,32.00
2018-12-02T08:00:39.313Z,40.00
2018-12-02T08:01:39.299Z,48.00
2018-12-02T08:02:39.292Z,48.00
2018-12-02T08:03:39.506Z,48.00
2018-12-02T08:04:39.299Z,60.00
2018-12-02T08:05:39.288Z,72.00
2018-12-02T08:06:39.292Z,80.00
2018-12-02T08:07:39.279Z,72.00
2018-12-02T08:08:39.276Z,64.00
2018-12-02T08:09:39.274Z,56.00
2018-12-02T08:10:39.297Z,48.00
2018-12-02T08:11:39.272Z,40.00
2018-12-02T08:12:39.267Z,40.00
2018-12-02T08:13:39.265Z,48.00
2018-12-02T08:14:39.309Z,48.00
2018-12-02T08:15:39.259Z,44.00
2018-12-02T08:16:39.271Z,44.00
2018-12-02T08:17:39.275Z,56.00
2018-12-02T08:18:39.253Z,64.00
2018-12-02T08:19:39.259Z,64.00
2018-12-02T08:20:39.270Z,52.00
2018-12-02T08:21:39.245Z,48.00
2018-12-02T08:22:39.241Z,48.00
2018-12-02T08:23:39.235Z,48.00
2018-12-02T08:24:39.235Z,48.00
2018-12-02T08:25:39.254Z,52.00
2018-12-02T08:26:39.246Z,40.00
2018-12-02T08:27:39.445Z,40.00
2018-12-02T08:28:39.239Z,40.00
2018-12-02T08:29:39.232Z,52.00
2018-12-02T08:30:39.231Z,64.00
2018-12-02T08:31:39.427Z,72.00
2018-12-02T08:32:39.242Z,76.00
2018-12-02T08:33:39.209Z,64.00
2018-12-02T08:34:39.220Z,56.00
2018-12-02T08:35:39.203Z,68.00
2018-12-02T08:36:39.204Z,76.00
2018-12-02T08:37:39.215Z,72.00
2018-12-02T08:38:39.195Z,72.00
2018-12-02T08:39:40.041Z,60.00
2018-12-02T08:40:39.192Z,60.00
2018-12-02T08:41:39.186Z,72.00
2018-12-02T08:42:39.197Z,72.00
2018-12-02T08:43:39.194Z,76.00
2018-12-02T08:44:39.392Z,80.00
2018-12-02T08:45:39.191Z,80.00
2018-12-02T08:46:39.187Z,68.00
2018-12-02T08:47:39.385Z,76.00
2018-12-02T08:48:39.202Z,76.00
2018-12-02T08:49:39.168Z,68.00
2018-12-02T08:50:39.182Z,72.00
2018-12-02T08:51:39.368Z,64.00
2018-12-02T08:52:39.165Z,60.00
2018-12-02T08:53:39.167Z,68.00
2018-12-02T08:54:39.156Z,72.00
2018-12-02T08:55:39.167Z,80.00
2018-12-02T08:56:39.150Z,80.00
2018-12-02T08:57:39.163Z,88.00
2018-12-02T08:58:39.146Z,92.00
2018-12-02T08:59:39.144Z,88.00
2018-12-02T09:00:39.140Z,84.00
2018-12-02T09:01:39.146Z,92.00
2018-12-02T09:02:39.134Z,100.00
2018-12-02T09:03:39.133Z,108.00
2018-12-02T09:04:39.146Z,112.00
2018-12-02T09:05:39.139Z,112.00
2018-12-02T09:06:39.123Z,104.00
2018-12-02T09:07:39.147Z,100.00
2018-12-02T09:08:39.351Z,96.00
2018-12-02T09:09:39.318Z,92.00
2018-12-02T09:10:39.115Z,92.00
2018-12-02T09:11:39.316Z,96.00
2018-12-02T09:12:39.123Z,100.00
2018-12-02T09:13:39.104Z,100.00
2018-12-02T09:14:39.103Z,96.00
2018-12-02T09:15:39.101Z,92.00
2018-12-02T09:16:39.100Z,92.00
2018-12-02T09:17:39.100Z,100.00
2018-12-02T09:18:39.093Z,96.00
2018-12-02T09:19:39.092Z,88.00
2018-12-02T09:20:39.101Z,72.00
2018-12-02T09:21:39.086Z,64.00
2018-12-02T09:22:39.081Z,64.00
2018-12-02T09:23:39.093Z,56.00
2018-12-02T09:24:39.081Z,52.00
2018-12-02T09:25:39.076Z,52.00
2018-12-02T09:26:39.085Z,48.00
2018-12-02T09:27:39.071Z,64.00
2018-12-02T09:28:39.079Z,68.00
2018-12-02T09:29:39.074Z,68.00
2018-12-02T09:30:39.062Z,68.00
2018-12-02T09:31:39.266Z,76.00
2018-12-02T09:32:39.081Z,80.00
2018-12-02T09:33:39.070Z,80.00
2018-12-02T09:34:39.067Z,84.00
2018-12-02T09:35:39.070Z,84.00
2018-12-02T09:36:39.063Z,80.00
2018-12-02T09:37:39.048Z,84.00
2018-12-02T09:38:39.043Z,84.00
2018-12-02T09:39:39.058Z,88.00
2018-12-02T09:40:39.081Z,84.00
2018-12-02T09:41:39.061Z,84.00
2018-12-02T09:42:39.035Z,88.00
2018-12-02T09:43:39.042Z,88.00
2018-12-02T09:44:39.050Z,88.00
2018-12-02T09:45:39.027Z,92.00
2018-12-02T09:46:39.039Z,96.00
2018-12-02T09:47:39.024Z,96.00
2018-12-02T09:48:39.034Z,100.00
2018-12-02T09:49:39.043Z,96.00
2018-12-02T09:50:39.018Z,100.00
2018-12-02T09:51:39.022Z,104.00
2018-12-02T09:52:39.024Z,104.00
2018-12-02T09:53:39.009Z,104.00
2018-12-02T09:54:39.015Z,100.00
2018-12-02T09:55:39.033Z,92.00
2018-12-02T09:56:39.003Z,92.00
2018-12-02T09:57:39.012Z,88.00
2018-12-02T09:58:38.996Z,88.00
2018-12-02T09:59:39.008Z,84.00
2018-12-02T10:00:39.004Z,92.00
2018-12-02T10:01:39.007Z,92.00
2018-12-02T10:02:39.188Z,88.00
2018-12-02T10:03:39.001Z,92.00
2018-12-02T10:04:38.996Z,92.00
2018-12-02T10:05:38.994Z,96.00
2018-12-02T10:06:38.984Z,92.00
2018-12-02T10:07:38.977Z,80.00
2018-12-02T10:08:38.991Z,72.00
2018-12-02T10:09:38.994Z,72.00
2018-12-02T10:10:38.972Z,72.00
2018-12-02T10:11:38.985Z,68.00
2018-12-02T10:12:38.975Z,64.00
2018-12-02T10:13:38.975Z,68.00
2018-12-02T10:14:39.162Z,72.00
2018-12-02T10:15:38.963Z,68.00
2018-12-02T10:16:39.166Z,64.00
2018-12-02T10:17:38.964Z,68.00
2018-12-02T10:18:38.954Z,72.00
2018-12-02T10:19:38.963Z,80.00
2018-12-02T10:20:38.962Z,88.00
2018-12-02T10:21:38.954Z,96.00
2018-12-02T10:22:39.154Z,100.00
2018-12-02T10:23:38.950Z,108.00
2018-12-02T10:24:38.962Z,116.00
2018-12-02T10:25:38.945Z,128.00
2018-12-02T10:26:38.949Z,148.00
2018-12-02T10:27:38.940Z,148.00
2018-12-02T10:28:38.939Z,136.00
2018-12-02T10:29:38.940Z,132.00
2018-12-02T10:30:39.136Z,140.00
2018-12-02T10:31:39.136Z,132.00
2018-12-02T10:32:38.928Z,124.00
2018-12-02T10:33:38.920Z,128.00
2018-12-02T10:34:38.914Z,128.00
2018-12-02T10:35:39.129Z,148.00
2018-12-02T10:36:38.925Z,160.00
2018-12-02T10:37:38.922Z,156.00
2018-12-02T10:38:38.906Z,160.00
2018-12-02T10:39:38.905Z,180.00
2018-12-02T10:40:38.955Z,172.00
2018-12-02T10:41:38.899Z,168.00
2018-12-02T10:42:38.898Z,168.00
2018-12-02T10:43:38.895Z,168.00
2018-12-02T10:44:38.918Z,164.00
2018-12-02T10:45:38.902Z,164.00
2018-12-02T10:46:43.821Z,172.00
2018-12-02T10:47:39.091Z,160.00
2018-12-02T10:48:38.888Z,168.00
2018-12-02T10:49:38.881Z,184.00
2018-12-02T10:50:38.882Z,180.00
2018-12-02T10:51:38.891Z,200.00
2018-12-02T10:52:38.889Z,176.00
2018-12-02T10:53:39.090Z,160.00
2018-12-02T10:54:38.873Z,144.00
2018-12-02T10:55:38.886Z,144.00
2018-12-02T10:56:38.881Z,140.00
2018-12-02T10:57:38.884Z,160.00
2018-12-02T10:58:38.889Z,152.00
2018-12-02T10:59:39.077Z,144.00
2018-12-02T11:00:39.064Z,140.00
2018-12-02T11:01:38.858Z,128.00
2018-12-02T11:02:38.857Z,144.00
2018-12-02T11:03:38.854Z,132.00
2018-12-02T11:04:38.864Z,144.00
2018-12-02T11:05:38.847Z,144.00
2018-12-02T11:06:38.858Z,172.00
2018-12-02T11:07:38.865Z,180.00
2018-12-02T11:08:38.854Z,192.00
2018-12-02T11:09:38.850Z,208.00
2018-12-02T11:10:38.838Z,224.00
2018-12-02T11:11:38.850Z,244.00
2018-12-02T11:12:38.844Z,280.00
2018-12-02T11:13:38.853Z,292.00
2018-12-02T11:14:38.841Z,264.00
2018-12-02T11:15:38.854Z,264.00
2018-12-02T11:16:38.857Z,220.00
2018-12-02T11:17:38.835Z,200.00
2018-12-02T11:18:38.838Z,188.00
2018-12-02T11:19:38.822Z,160.00
2018-12-02T11:20:38.818Z,184.00
2018-12-02T11:21:38.821Z,224.00
2018-12-02T11:22:38.829Z,212.00
2018-12-02T11:23:38.828Z,228.00
2018-12-02T11:24:38.814Z,292.00
2018-12-02T11:25:39.024Z,252.00
2018-12-02T11:26:38.805Z,296.00
2018-12-02T11:27:38.809Z,272.00
2018-12-02T11:28:38.816Z,300.00
2018-12-02T11:29:38.814Z,296.00
2018-12-02T11:30:39.064Z,388.00
2018-12-02T11:31:38.800Z,356.00
2018-12-02T11:32:38.807Z,348.00
2018-12-02T11:33:38.799Z,372.00
2018-12-02T11:34:38.807Z,304.00
2018-12-02T11:35:38.792Z,272.00
2018-12-02T11:36:38.805Z,260.00
2018-12-02T11:37:38.990Z,224.00
2018-12-02T11:38:38.785Z,212.00
2018-12-02T11:39:38.788Z,200.00
2018-12-02T11:40:38.790Z,220.00
2018-12-02T11:41:38.789Z,264.00
2018-12-02T11:42:38.779Z,260.00
2018-12-02T11:43:38.778Z,304.00
2018-12-02T11:44:38.804Z,272.00
2018-12-02T11:45:38.786Z,288.00
2018-12-02T11:46:38.774Z,264.00
2018-12-02T11:47:38.769Z,232.00
2018-12-02T11:48:38.770Z,248.00
2018-12-02T11:49:38.781Z,248.00
2018-12-02T11:50:38.971Z,272.00
2018-12-02T11:51:38.765Z,224.00
2018-12-02T11:52:38.789Z,232.00
2018-12-02T11:53:38.761Z,208.00
2018-12-02T11:54:38.763Z,228.00
2018-12-02T11:55:38.758Z,216.00
2018-12-02T11:56:38.771Z,252.00
2018-12-02T11:57:38.772Z,220.00
2018-12-02T11:58:38.767Z,272.00
2018-12-02T11:59:38.751Z,244.00
2018-12-02T12:00:38.753Z,276.00
2018-12-02T12:01:38.751Z,336.00
2018-12-02T12:02:38.748Z,252.00
2018-12-02T12:03:38.757Z,244.00
2018-12-02T12:04:38.958Z,208.00
2018-12-02T12:05:38.743Z,244.00
2018-12-02T12:06:38.759Z,260.00
2018-12-02T12:07:38.757Z,284.00
2018-12-02T12:08:38.765Z,288.00
2018-12-02T12:09:38.957Z,300.00
2018-12-02T12:10:38.735Z,296.00
2018-12-02T12:11:38.740Z,328.00
2018-12-02T12:12:38.745Z,284.00
2018-12-02T12:13:38.755Z,368.00
2018-12-02T12:14:39.778Z,344.00
2018-12-02T12:15:38.737Z,428.00
2018-12-02T12:16:38.742Z,428.00
2018-12-02T12:17:38.725Z,328.00
2018-12-02T12:18:38.739Z,356.00
2018-12-02T12:19:38.733Z,376.00
2018-12-02T12:20:38.724Z,380.00
2018-12-02T12:21:38.923Z,372.00
2018-12-02T12:22:38.719Z,348.00
2018-12-02T12:23:38.728Z,304.00
2018-12-02T12:24:38.731Z,380.00
2018-12-02T12:25:38.727Z,312.00
2018-12-02T12:26:38.713Z,292.00
2018-12-02T12:27:38.917Z,336.00
2018-12-02T12:28:38.723Z,336.00
2018-12-02T12:29:38.721Z,400.00
2018-12-02T12:30:38.711Z,420.00
2018-12-02T12:31:38.726Z,472.00
2018-12-02T12:32:38.710Z,492.00
2018-12-02T12:33:38.706Z,424.00
2018-12-02T12:34:38.921Z,328.00
2018-12-02T12:35:38.726Z,268.00
2018-12-02T12:36:38.916Z,328.00
2018-12-02T12:37:38.922Z,272.00
2018-12-02T12:38:38.703Z,312.00
2018-12-02T12:39:38.698Z,308.00
2018-12-02T12:40:38.914Z,328.00
2018-12-02T12:41:38.695Z,280.00
2018-12-02T12:42:38.896Z,332.00
2018-12-02T12:43:38.691Z,256.00
2018-12-02T12:44:38.690Z,272.00
2018-12-02T12:45:38.702Z,276.00
2018-12-02T12:46:38.694Z,268.00
2018-12-02T12:47:38.710Z,316.00
2018-12-02T12:48:38.687Z,364.00
2018-12-02T12:49:38.701Z,392.00
2018-12-02T12:50:38.684Z,512.00
2018-12-02T12:51:39.921Z,456.00
2018-12-02T12:52:38.708Z,540.00
2018-12-02T12:53:38.705Z,508.00
2018-12-02T12:54:38.691Z,488.00
2018-12-02T12:55:38.681Z,376.00
2018-12-02T12:56:38.693Z,424.00
2018-12-02T12:57:38.686Z,312.00
2018-12-02T12:58:38.676Z,312.00
2018-12-02T12:59:38.675Z,296.00
2018-12-02T13:00:38.892Z,284.00
2018-12-02T13:01:38.681Z,220.00